createdAt,value
2023-03-13T00:01:13.967Z,9.40
2023-03-13T00:03:42.141Z,9.40
2023-03-13T00:06:11.622Z,9.40
2023-03-13T00:08:39.695Z,9.30
2023-03-13T00:11:09.260Z,9.30
2023-03-13T00:13:37.448Z,9.30
2023-03-13T00:16:07.794Z,9.40
2023-03-13T00:18:35.896Z,9.40
2023-03-13T00:21:05.978Z,9.30
2023-03-13T00:23:37.046Z,9.30
2023-03-13T00:26:07.688Z,9.30
2023-03-13T00:28:37.392Z,9.30
2023-03-13T00:31:07.786Z,9.20
2023-03-13T00:33:36.438Z,9.30
2023-03-13T00:36:07.205Z,9.40
2023-03-13T00:38:37.180Z,9.40
2023-03-13T00:41:06.574Z,9.40
2023-03-13T00:43:36.642Z,9.40
2023-03-13T00:46:05.007Z,9.40
2023-03-13T00:48:33.608Z,9.50
2023-03-13T00:51:02.316Z,9.40
2023-03-13T00:53:30.978Z,9.50
2023-03-13T00:56:02.859Z,9.50
2023-03-13T00:58:33.291Z,9.60
2023-03-13T01:01:09.339Z,9.60
2023-03-13T01:03:37.964Z,9.60
2023-03-13T01:06:08.005Z,9.60
2023-03-13T01:08:36.688Z,9.60
2023-03-13T01:11:07.872Z,9.70
2023-03-13T01:13:37.071Z,9.60
2023-03-13T01:16:07.322Z,9.70
2023-03-13T01:18:36.502Z,9.60
2023-03-13T01:21:05.555Z,9.70
2023-03-13T01:23:33.602Z,9.70
2023-03-13T01:26:01.925Z,9.70
2023-03-13T01:28:31.311Z,9.70
2023-03-13T01:30:59.401Z,9.80
2023-03-13T01:33:27.728Z,9.80
2023-03-13T01:36:03.068Z,9.80
2023-03-13T01:38:31.082Z,9.80
2023-03-13T01:40:59.102Z,9.90
2023-03-13T01:43:29.484Z,9.80
2023-03-13T01:46:05.290Z,9.90
2023-03-13T01:48:38.976Z,9.90
2023-03-13T01:51:11.415Z,9.90
2023-03-13T01:53:44.606Z,10.00
2023-03-13T01:56:18.233Z,9.90
2023-03-13T01:58:46.875Z,9.80
2023-03-13T02:01:17.407Z,9.80
2023-03-13T02:03:45.752Z,9.80
2023-03-13T02:06:14.008Z,9.90
2023-03-13T02:08:45.627Z,9.80
2023-03-13T02:11:23.055Z,9.80
2023-03-13T02:13:52.117Z,9.70
2023-03-13T02:16:23.668Z,9.50
2023-03-13T02:18:52.149Z,9.50
2023-03-13T02:21:34.892Z,9.50
2023-03-13T02:24:09.340Z,9.40
2023-03-13T02:26:38.818Z,9.40
2023-03-13T02:29:06.891Z,9.40
2023-03-13T02:31:34.954Z,9.40
2023-03-13T02:34:03.651Z,9.40
2023-03-13T02:36:32.215Z,9.30
2023-03-13T02:39:05.219Z,9.40
2023-03-13T02:41:35.265Z,9.60
2023-03-13T02:44:05.826Z,9.50
2023-03-13T02:46:46.404Z,9.70
2023-03-13T02:49:25.983Z,9.60
2023-03-13T02:51:55.360Z,9.60
2023-03-13T02:54:27.725Z,9.70
2023-03-13T02:56:58.902Z,9.70
2023-03-13T02:59:28.371Z,9.90
2023-03-13T03:01:56.564Z,9.80
2023-03-13T03:04:26.128Z,9.90
2023-03-13T03:06:54.958Z,9.90
2023-03-13T03:09:24.058Z,10.00
2023-03-13T03:11:52.409Z,10.00
2023-03-13T03:14:20.624Z,10.10
2023-03-13T03:16:50.069Z,10.10
2023-03-13T03:19:18.145Z,10.20
2023-03-13T03:21:46.534Z,10.30
2023-03-13T03:24:14.459Z,10.20
2023-03-13T03:26:42.482Z,10.30
2023-03-13T03:29:10.980Z,10.50
2023-03-13T03:31:39.030Z,10.20
2023-03-13T03:34:08.392Z,10.10
2023-03-13T03:36:36.391Z,10.00
2023-03-13T03:39:05.312Z,10.10
2023-03-13T03:41:33.319Z,10.10
2023-03-13T03:44:01.279Z,10.20
2023-03-13T03:46:29.314Z,10.20
2023-03-13T03:48:57.469Z,10.20
2023-03-13T03:51:26.864Z,10.20
2023-03-13T03:53:54.895Z,10.20
2023-03-13T03:56:22.927Z,10.20
2023-03-13T03:58:50.938Z,10.30
2023-03-13T04:01:18.960Z,10.20
2023-03-13T04:03:48.386Z,10.10
2023-03-13T04:06:16.598Z,10.10
2023-03-13T04:08:45.956Z,10.10
2023-03-13T04:11:13.946Z,10.10
2023-03-13T04:13:41.947Z,10.10
2023-03-13T04:16:10.911Z,10.10
2023-03-13T04:18:39.088Z,10.00
2023-03-13T04:21:07.665Z,10.00
2023-03-13T04:23:35.734Z,10.10
2023-03-13T04:26:05.354Z,10.20
2023-03-13T04:28:33.370Z,10.30
2023-03-13T04:31:01.417Z,10.20
2023-03-13T04:33:29.578Z,10.20
2023-03-13T04:35:57.622Z,10.30
2023-03-13T04:38:25.696Z,10.10
2023-03-13T04:40:53.712Z,10.20
2023-03-13T04:43:23.071Z,10.30
2023-03-13T04:45:54.589Z,10.20
2023-03-13T04:48:22.870Z,10.20
2023-03-13T04:50:50.992Z,10.30
2023-03-13T04:53:19.371Z,10.20
2023-03-13T04:55:47.706Z,10.20
2023-03-13T04:58:15.655Z,10.20
2023-03-13T05:00:45.005Z,10.30
2023-03-13T05:03:13.074Z,10.30
2023-03-13T05:05:41.069Z,10.40
2023-03-13T05:08:10.911Z,10.50
2023-03-13T05:10:38.898Z,10.70
2023-03-13T05:13:06.943Z,10.60
2023-03-13T05:15:35.146Z,10.60
2023-03-13T05:18:04.976Z,10.60
2023-03-13T05:20:33.048Z,10.70
2023-03-13T05:23:01.126Z,10.80
2023-03-13T05:25:29.171Z,10.70
2023-03-13T05:27:57.219Z,10.70
2023-03-13T05:30:25.497Z,10.70
2023-03-13T05:32:53.543Z,10.70
2023-03-13T05:35:23.335Z,10.70
2023-03-13T05:37:51.598Z,10.80
2023-03-13T05:40:19.813Z,10.90
2023-03-13T05:42:47.850Z,10.90
2023-03-13T05:45:15.987Z,10.90
2023-03-13T05:47:43.993Z,10.90
2023-03-13T05:50:12.778Z,10.90
2023-03-13T05:52:42.119Z,11.10
2023-03-13T05:55:10.714Z,11.10
2023-03-13T05:57:39.454Z,11.10
2023-03-13T06:00:08.705Z,11.20
2023-03-13T06:02:36.727Z,11.20
2023-03-13T06:05:05.044Z,11.10
2023-03-13T06:07:33.081Z,11.00
2023-03-13T06:10:02.509Z,11.00
2023-03-13T06:12:30.600Z,11.00
2023-03-13T06:14:58.687Z,11.00
2023-03-13T06:17:26.712Z,10.90
2023-03-13T06:19:54.744Z,10.90
2023-03-13T06:22:22.822Z,11.00
2023-03-13T06:24:50.866Z,11.00
2023-03-13T06:27:20.267Z,11.00
2023-03-13T06:29:48.265Z,11.10
2023-03-13T06:32:16.502Z,11.20
2023-03-13T06:34:44.595Z,11.10
2023-03-13T06:37:12.744Z,11.10
2023-03-13T06:39:40.904Z,11.20
2023-03-13T06:42:09.208Z,11.30
2023-03-13T06:44:38.737Z,11.30
2023-03-13T06:47:07.126Z,11.30
2023-03-13T06:49:35.182Z,11.40
2023-03-13T06:52:03.240Z,11.50
2023-03-13T06:54:31.730Z,11.40
2023-03-13T06:56:59.816Z,11.40
2023-03-13T06:59:27.966Z,11.50
2023-03-13T07:01:57.326Z,11.50
2023-03-13T07:04:25.339Z,11.60
2023-03-13T07:06:53.393Z,11.60
2023-03-13T07:09:21.455Z,11.70
2023-03-13T07:11:49.457Z,11.70
2023-03-13T07:14:17.965Z,11.60
2023-03-13T07:16:46.466Z,11.90
2023-03-13T07:19:16.521Z,11.70
2023-03-13T07:21:45.147Z,11.80
2023-03-13T07:24:13.429Z,11.80
2023-03-13T07:26:48.665Z,11.80
2023-03-13T07:29:22.520Z,11.80
2023-03-13T07:31:50.665Z,11.80
2023-03-13T07:34:20.449Z,11.80
2023-03-13T07:36:48.564Z,11.90
2023-03-13T07:39:16.638Z,12.00
2023-03-13T07:41:44.764Z,12.00
2023-03-13T07:44:12.899Z,12.10
2023-03-13T07:46:41.007Z,12.10
2023-03-13T07:49:08.989Z,12.20
2023-03-13T07:51:43.842Z,12.20
2023-03-13T07:54:12.602Z,12.20
2023-03-13T07:56:41.402Z,12.20
2023-03-13T07:59:09.732Z,12.30
2023-03-13T08:01:38.011Z,12.30
2023-03-13T08:04:06.338Z,12.40
2023-03-13T08:06:36.850Z,12.50
2023-03-13T08:09:08.656Z,12.50
2023-03-13T08:11:36.886Z,12.60
2023-03-13T08:14:05.094Z,12.60
2023-03-13T08:16:35.141Z,12.70
2023-03-13T08:19:05.922Z,12.70
2023-03-13T08:21:36.194Z,12.70
2023-03-13T08:24:08.586Z,12.70
2023-03-13T08:26:38.075Z,12.80
2023-03-13T08:29:07.647Z,12.80
2023-03-13T08:31:37.714Z,13.00
2023-03-13T08:34:05.937Z,13.10
2023-03-13T08:36:35.671Z,13.20
2023-03-13T08:39:05.914Z,13.30
2023-03-13T08:41:37.210Z,13.30
2023-03-13T08:44:06.372Z,13.30
2023-03-13T08:46:36.897Z,13.30
2023-03-13T08:49:07.004Z,13.30
2023-03-13T08:51:35.935Z,13.20
2023-03-13T08:54:05.273Z,13.40
2023-03-13T08:56:35.542Z,13.40
2023-03-13T08:59:06.212Z,13.40
2023-03-13T09:01:36.643Z,13.40
2023-03-13T09:04:06.144Z,13.30
2023-03-13T09:06:35.135Z,13.30
2023-03-13T09:09:04.912Z,13.40
2023-03-13T09:11:33.952Z,13.40
2023-03-13T09:14:03.848Z,13.50
2023-03-13T09:16:33.985Z,13.50
2023-03-13T09:19:03.084Z,13.60
2023-03-13T09:21:32.844Z,13.60
2023-03-13T09:24:01.709Z,13.60
2023-03-13T09:26:30.146Z,13.70
2023-03-13T09:28:58.877Z,13.70
2023-03-13T09:31:42.956Z,13.80
2023-03-13T09:34:11.121Z,13.90
2023-03-13T09:36:39.358Z,13.90
2023-03-13T09:39:07.476Z,14.00
2023-03-13T09:41:40.806Z,13.90
2023-03-13T09:44:16.314Z,13.90
2023-03-13T09:46:51.817Z,13.80
2023-03-13T09:49:31.280Z,13.90
2023-03-13T09:52:13.274Z,14.00
2023-03-13T09:54:45.060Z,14.10
2023-03-13T09:57:20.746Z,14.10
2023-03-13T09:59:55.444Z,14.20
2023-03-13T10:02:30.984Z,14.30
2023-03-13T10:05:10.816Z,14.30
2023-03-13T10:07:39.729Z,14.30
2023-03-13T10:10:15.929Z,14.30
2023-03-13T10:12:48.246Z,14.40
2023-03-13T10:15:33.526Z,14.50
2023-03-13T10:18:15.097Z,14.70
2023-03-13T10:20:45.484Z,14.80
2023-03-13T10:23:20.059Z,14.80
2023-03-13T10:25:49.620Z,15.00
2023-03-13T10:28:23.054Z,15.30
2023-03-13T10:30:55.350Z,15.50
2023-03-13T10:33:28.349Z,15.70
2023-03-13T10:36:08.212Z,15.90
2023-03-13T10:38:47.679Z,15.80
2023-03-13T10:41:31.220Z,15.90
2023-03-13T10:44:02.692Z,15.60
2023-03-13T10:46:34.381Z,15.60
2023-03-13T10:49:06.773Z,15.40
2023-03-13T10:51:38.928Z,15.30
2023-03-13T10:54:23.909Z,15.30
2023-03-13T10:56:54.368Z,15.30
2023-03-13T10:59:25.797Z,15.50
2023-03-13T11:01:55.440Z,15.80
2023-03-13T11:04:33.501Z,15.90
2023-03-13T11:07:06.152Z,15.90
2023-03-13T11:09:34.315Z,15.80
2023-03-13T11:12:08.052Z,15.80
2023-03-13T11:14:36.836Z,15.90
2023-03-13T11:17:12.334Z,16.10
2023-03-13T11:19:53.604Z,16.20
2023-03-13T11:22:51.651Z,16.40
2023-03-13T11:25:24.268Z,16.80
2023-03-13T11:28:04.869Z,17.20
2023-03-13T11:30:50.122Z,17.40
2023-03-13T11:33:30.684Z,17.50
2023-03-13T11:36:05.971Z,17.70
2023-03-13T11:38:38.066Z,17.90
2023-03-13T11:41:25.837Z,18.10
2023-03-13T11:44:15.565Z,18.00
2023-03-13T11:46:51.075Z,18.10
2023-03-13T11:49:41.011Z,17.90
2023-03-13T11:52:25.402Z,17.80
2023-03-13T11:55:12.196Z,17.50
2023-03-13T11:57:49.073Z,17.30
2023-03-13T12:00:24.206Z,17.10
2023-03-13T12:02:57.778Z,16.90
2023-03-13T12:05:28.703Z,17.00
2023-03-13T12:08:04.677Z,16.90
2023-03-13T12:10:37.335Z,16.90
2023-03-13T12:13:08.764Z,17.00
2023-03-13T12:15:40.879Z,17.10
2023-03-13T12:18:18.609Z,17.10
2023-03-13T12:20:55.957Z,17.10
2023-03-13T12:23:35.722Z,17.10
2023-03-13T12:26:08.703Z,17.10
2023-03-13T12:28:40.814Z,17.20
2023-03-13T12:31:18.724Z,17.00
2023-03-13T12:33:53.029Z,17.00
2023-03-13T12:36:26.457Z,17.00
2023-03-13T12:39:01.647Z,17.00
2023-03-13T12:41:34.290Z,17.00
2023-03-13T12:44:09.279Z,17.10
2023-03-13T12:46:46.287Z,17.30
2023-03-13T12:49:54.736Z,17.60
2023-03-13T12:52:58.521Z,17.70
2023-03-13T12:55:52.701Z,17.70
2023-03-13T12:58:45.367Z,17.80
2023-03-13T13:01:20.697Z,18.00
2023-03-13T13:03:55.000Z,18.60
2023-03-13T13:06:23.679Z,18.90
2023-03-13T13:09:09.225Z,19.00
2023-03-13T13:11:48.380Z,19.20
2023-03-13T13:14:58.138Z,19.30
2023-03-13T13:17:57.635Z,19.20
2023-03-13T13:20:35.673Z,19.40
2023-03-13T13:23:35.205Z,19.40
2023-03-13T13:26:48.345Z,19.80
2023-03-13T13:29:59.144Z,19.50
2023-03-13T13:32:41.973Z,19.20
2023-03-13T13:35:31.247Z,19.10
2023-03-13T13:38:36.733Z,18.90
2023-03-13T13:41:24.008Z,19.30
2023-03-13T13:44:25.790Z,19.10
2023-03-13T13:46:56.293Z,18.90
2023-03-13T13:49:37.762Z,19.00
2023-03-13T13:52:36.727Z,19.00
2023-03-13T13:55:21.495Z,19.10
2023-03-13T13:57:51.273Z,19.00
2023-03-13T14:00:22.946Z,19.00
2023-03-13T14:02:52.965Z,18.80
2023-03-13T14:05:26.799Z,19.00
2023-03-13T14:08:00.229Z,19.40
2023-03-13T14:10:36.048Z,20.20
2023-03-13T14:13:12.568Z,20.20
2023-03-13T14:15:44.255Z,20.30
2023-03-13T14:18:17.470Z,20.90
2023-03-13T14:20:57.745Z,20.70
2023-03-13T14:23:40.015Z,21.10
2023-03-13T14:26:18.002Z,21.40
2023-03-13T14:28:48.293Z,20.70
2023-03-13T14:31:27.666Z,20.20
2023-03-13T14:33:57.163Z,19.70
2023-03-13T14:36:27.210Z,19.70
2023-03-13T14:38:57.830Z,19.90
2023-03-13T14:41:30.840Z,19.70
2023-03-13T14:44:06.344Z,19.60
2023-03-13T14:46:36.988Z,19.40
2023-03-13T14:49:15.502Z,19.20
2023-03-13T14:51:45.362Z,19.40
2023-03-13T14:54:29.217Z,19.30
2023-03-13T14:57:16.159Z,19.10
2023-03-13T14:59:44.741Z,18.90
2023-03-13T15:02:20.462Z,18.40
2023-03-13T15:05:01.152Z,18.10
2023-03-13T15:07:38.832Z,17.90
2023-03-13T15:10:21.263Z,17.70
2023-03-13T15:12:50.142Z,17.50
2023-03-13T15:15:18.773Z,17.30
2023-03-13T15:17:46.903Z,17.30
2023-03-13T15:20:16.190Z,17.10
2023-03-13T15:22:47.188Z,17.00
2023-03-13T15:25:18.120Z,16.70
2023-03-13T15:27:46.249Z,16.60
2023-03-13T15:30:17.117Z,16.50
2023-03-13T15:32:47.108Z,16.60
2023-03-13T15:35:33.839Z,16.70
2023-03-13T15:38:06.170Z,16.90
2023-03-13T15:40:34.437Z,16.80
2023-03-13T15:43:02.555Z,16.70
2023-03-13T15:45:30.651Z,16.60
2023-03-13T15:47:58.828Z,16.40
2023-03-13T15:50:30.814Z,16.20
2023-03-13T15:53:00.809Z,16.00
2023-03-13T15:55:31.083Z,15.80
2023-03-13T15:57:59.316Z,15.80
2023-03-13T16:00:28.431Z,15.60
2023-03-13T16:02:56.749Z,15.60
2023-03-13T16:05:24.991Z,15.50
2023-03-13T16:07:53.160Z,15.50
2023-03-13T16:10:25.647Z,15.50
2023-03-13T16:12:55.701Z,15.40
2023-03-13T16:15:23.823Z,15.40
2023-03-13T16:17:52.099Z,15.30
2023-03-13T16:20:23.796Z,15.30
2023-03-13T16:22:53.669Z,15.20
2023-03-13T16:25:22.345Z,15.20
2023-03-13T16:27:50.631Z,15.20
2023-03-13T16:30:24.446Z,15.10
2023-03-13T16:32:52.688Z,15.20
2023-03-13T16:35:21.261Z,15.10
2023-03-13T16:37:50.881Z,15.00
2023-03-13T16:40:22.384Z,15.00
2023-03-13T16:42:50.780Z,15.00
2023-03-13T16:45:21.199Z,15.00
2023-03-13T16:47:49.603Z,15.10
2023-03-13T16:50:27.238Z,15.00
2023-03-13T16:52:55.742Z,15.00
2023-03-13T16:55:28.694Z,15.00
2023-03-13T16:57:57.311Z,14.90
2023-03-13T17:00:29.194Z,14.80
2023-03-13T17:02:58.689Z,14.70
2023-03-13T17:05:27.308Z,14.60
2023-03-13T17:07:55.495Z,14.50
2023-03-13T17:10:25.998Z,14.40
2023-03-13T17:12:54.289Z,14.30
2023-03-13T17:15:22.942Z,14.20
2023-03-13T17:17:54.197Z,14.00
2023-03-13T17:20:24.579Z,13.90
2023-03-13T17:22:53.270Z,13.70
2023-03-13T17:25:21.361Z,13.60
2023-03-13T17:27:49.588Z,13.50
2023-03-13T17:30:24.095Z,13.40
2023-03-13T17:32:54.458Z,13.40
2023-03-13T17:35:23.363Z,13.40
2023-03-13T17:37:51.744Z,13.30
2023-03-13T17:40:22.763Z,13.30
2023-03-13T17:42:51.658Z,13.20
2023-03-13T17:45:20.304Z,13.20
2023-03-13T17:47:50.299Z,13.10
2023-03-13T17:50:21.616Z,13.00
2023-03-13T17:52:50.052Z,13.00
2023-03-13T17:55:18.748Z,12.90
2023-03-13T17:57:47.892Z,12.90
2023-03-13T18:00:22.752Z,12.90
2023-03-13T18:02:51.709Z,12.90
2023-03-13T18:05:21.606Z,13.00
2023-03-13T18:07:50.619Z,13.10
2023-03-13T18:10:21.680Z,13.10
2023-03-13T18:12:51.413Z,13.30
2023-03-13T18:15:20.078Z,13.30
2023-03-13T18:17:48.796Z,13.30
2023-03-13T18:20:19.027Z,13.30
2023-03-13T18:22:48.907Z,13.30
2023-03-13T18:25:26.593Z,13.20
2023-03-13T18:27:54.808Z,13.20
2023-03-13T18:30:24.840Z,13.10
2023-03-13T18:32:53.265Z,13.00
2023-03-13T18:35:21.558Z,13.00
2023-03-13T18:37:51.284Z,13.10
2023-03-13T18:40:21.614Z,13.00
2023-03-13T18:42:50.804Z,12.90
2023-03-13T18:45:21.298Z,12.90
2023-03-13T18:47:50.156Z,12.90
2023-03-13T18:50:26.642Z,12.80
2023-03-13T18:52:58.083Z,12.80
2023-03-13T18:55:28.079Z,12.80
2023-03-13T18:57:56.486Z,12.70
2023-03-13T19:00:27.079Z,12.70
2023-03-13T19:02:55.344Z,12.70
2023-03-13T19:05:24.522Z,12.70
2023-03-13T19:07:52.891Z,12.70
2023-03-13T19:10:26.305Z,12.70
2023-03-13T19:12:56.078Z,12.70
2023-03-13T19:15:28.595Z,12.70
2023-03-13T19:17:57.823Z,12.60
2023-03-13T19:20:26.192Z,12.60
2023-03-13T19:22:56.261Z,12.70
2023-03-13T19:25:29.420Z,12.70
2023-03-13T19:27:57.764Z,12.70
2023-03-13T19:30:28.346Z,12.70
2023-03-13T19:32:56.755Z,12.70
2023-03-13T19:35:25.574Z,12.80
2023-03-13T19:37:53.760Z,12.70
2023-03-13T19:40:24.208Z,12.70
2023-03-13T19:42:54.663Z,12.70
2023-03-13T19:45:22.966Z,12.70
2023-03-13T19:47:51.665Z,12.70
2023-03-13T19:50:21.418Z,12.70
2023-03-13T19:52:49.983Z,12.70
2023-03-13T19:55:18.403Z,12.60
2023-03-13T19:57:47.146Z,12.60
2023-03-13T20:00:22.088Z,12.50
2023-03-13T20:02:52.190Z,12.40
2023-03-13T20:05:20.496Z,12.40
2023-03-13T20:07:49.107Z,12.40
2023-03-13T20:10:17.656Z,12.30
2023-03-13T20:12:46.040Z,12.30
2023-03-13T20:15:14.844Z,12.30
2023-03-13T20:17:44.726Z,12.30
2023-03-13T20:20:13.992Z,12.30
2023-03-13T20:22:42.861Z,12.30
2023-03-13T20:25:11.926Z,12.30
2023-03-13T20:27:40.319Z,12.20
2023-03-13T20:30:09.844Z,12.20
2023-03-13T20:32:49.053Z,12.20
2023-03-13T20:35:26.919Z,12.20
2023-03-13T20:37:57.473Z,12.20
2023-03-13T20:40:25.739Z,12.20
2023-03-13T20:42:53.818Z,12.20
2023-03-13T20:45:22.098Z,12.20
2023-03-13T20:47:50.250Z,12.20
2023-03-13T20:50:19.825Z,12.20
2023-03-13T20:52:49.920Z,12.10
2023-03-13T20:55:18.782Z,12.10
2023-03-13T20:57:47.037Z,12.10
2023-03-13T21:00:15.869Z,12.10
2023-03-13T21:02:44.143Z,12.10
2023-03-13T21:05:12.323Z,12.00
2023-03-13T21:07:40.535Z,12.00
2023-03-13T21:10:11.759Z,11.90
2023-03-13T21:12:40.125Z,11.90
2023-03-13T21:15:10.067Z,11.90
2023-03-13T21:17:38.773Z,11.80
2023-03-13T21:20:11.615Z,11.80
2023-03-13T21:22:40.245Z,11.80
2023-03-13T21:25:11.300Z,11.70
2023-03-13T21:27:40.199Z,11.70
2023-03-13T21:30:10.429Z,11.60
2023-03-13T21:32:39.628Z,11.60
2023-03-13T21:35:09.537Z,11.60
2023-03-13T21:37:38.248Z,11.60
2023-03-13T21:40:09.822Z,11.60
2023-03-13T21:42:43.831Z,11.60
2023-03-13T21:45:13.220Z,11.60
2023-03-13T21:47:41.413Z,11.60
2023-03-13T21:50:11.761Z,11.60
2023-03-13T21:52:42.207Z,11.70
2023-03-13T21:55:12.728Z,11.80
2023-03-13T21:57:42.346Z,11.90
2023-03-13T22:00:13.999Z,11.90
2023-03-13T22:02:42.845Z,11.90
2023-03-13T22:05:11.076Z,11.90
2023-03-13T22:07:39.177Z,11.90
2023-03-13T22:10:07.958Z,11.80
2023-03-13T22:12:37.436Z,11.70
2023-03-13T22:15:08.298Z,11.60
2023-03-13T22:17:36.480Z,11.50
2023-03-13T22:20:05.445Z,11.40
2023-03-13T22:22:33.587Z,11.40
2023-03-13T22:25:01.696Z,11.40
2023-03-13T22:27:29.877Z,11.50
2023-03-13T22:29:58.093Z,11.50
2023-03-13T22:32:27.757Z,11.60
2023-03-13T22:34:55.928Z,11.50
2023-03-13T22:37:26.750Z,11.50
2023-03-13T22:39:55.078Z,11.50
2023-03-13T22:42:24.393Z,11.50
2023-03-13T22:44:55.078Z,11.50
2023-03-13T22:47:23.720Z,11.50
2023-03-13T22:49:53.757Z,11.50
2023-03-13T22:52:22.577Z,11.40
2023-03-13T22:54:50.637Z,11.40
2023-03-13T22:57:18.651Z,11.50
2023-03-13T22:59:46.853Z,11.50
2023-03-13T23:02:14.892Z,11.50
2023-03-13T23:04:43.126Z,11.50
2023-03-13T23:07:12.678Z,11.50
2023-03-13T23:09:40.792Z,11.50
2023-03-13T23:12:08.987Z,11.40
2023-03-13T23:14:37.140Z,11.50
2023-03-13T23:17:05.473Z,11.60
2023-03-13T23:19:35.551Z,11.60
2023-03-13T23:22:03.581Z,11.60
2023-03-13T23:24:33.112Z,11.50
2023-03-13T23:27:01.156Z,11.70
2023-03-13T23:29:29.248Z,11.60
2023-03-13T23:31:57.306Z,11.60
2023-03-13T23:34:25.372Z,11.60
2023-03-13T23:36:54.405Z,11.70
2023-03-13T23:39:22.513Z,11.70
2023-03-13T23:41:52.093Z,11.50
2023-03-13T23:44:20.181Z,11.50
2023-03-13T23:46:48.295Z,11.50
2023-03-13T23:49:16.715Z,11.40
2023-03-13T23:51:44.822Z,11.40
2023-03-13T23:54:12.898Z,11.30
2023-03-13T23:56:41.050Z,11.30
2023-03-13T23:59:10.503Z,11.30
